Time;durP1;ratioP1;P1;durP2;ratioP2;P2;SDS_P1;SDS_P2;PMS_P1;PMS_P2;Temp;Humidity;BMP_temperature;BMP_pressure;BME280_temperature;BME280_humidity;BME280_pressure;Samples;Min_cycle;Max_cycle;Signal;HPM_P1;HPM_P2
2021/08/10 00:01:43;;;;;;;12.87;8.03;;;;;;;;;;5031816;28;20418;-70
2021/08/10 00:04:09;;;;;;;11.67;8.53;;;;;;;;;;5031814;28;20438;-70
2021/08/10 00:06:35;;;;;;;14.20;9.00;;;;;;;;;;5031565;28;20448;-71
2021/08/10 00:09:01;;;;;;;13.20;8.70;;;;;;;;;;5031678;28;20453;-71
2021/08/10 00:11:27;;;;;;;11.63;8.67;;;;;;;;;;5031821;28;20449;-70
2021/08/10 00:13:53;;;;;;;14.07;9.23;;;;;;;;;;5031574;28;20914;-70
2021/08/10 00:16:19;;;;;;;13.47;9.30;;;;;;;;;;5031819;28;20420;-72
2021/08/10 00:18:45;;;;;;;15.77;10.37;;;;;;;;;;5031333;28;20409;-70
2021/08/10 00:21:11;;;;;;;13.40;9.77;;;;;;;;;;5031168;28;20515;-73
2021/08/10 00:23:37;;;;;;;12.47;9.40;;;;;;;;;;5031362;28;20620;-71
2021/08/10 00:26:04;;;;;;;15.70;10.40;;;;;;;;;;5031507;28;20422;-71
2021/08/10 00:28:30;;;;;;;15.50;9.00;;;;;;;;;;5031159;28;20405;-72
2021/08/10 00:30:56;;;;;;;12.93;8.70;;;;;;;;;;5031602;28;20510;-70
2021/08/10 00:33:22;;;;;;;15.60;9.20;;;;;;;;;;5031470;28;20491;-72
2021/08/10 00:35:48;;;;;;;16.27;10.67;;;;;;;;;;5031414;28;20939;-71
2021/08/10 00:38:14;;;;;;;12.70;8.93;;;;;;;;;;5030709;28;20424;-72
2021/08/10 00:40:41;;;;;;;13.60;8.93;;;;;;;;;;5031465;28;20563;-71
2021/08/10 00:43:25;;;;;;;13.93;9.20;;;;;;;;;;5031020;28;20506;-73
2021/08/10 00:45:51;;;;;;;14.70;9.80;;;;;;;;;;5031084;28;20929;-71
2021/08/10 00:48:19;;;;;;;13.80;10.20;;;;;;;;;;5029320;28;20460;-70
2021/08/10 00:50:45;;;;;;;13.60;9.03;;;;;;;;;;5030282;28;20500;-70
2021/08/10 00:53:11;;;;;;;17.27;9.27;;;;;;;;;;5030861;28;20445;-70
2021/08/10 00:55:37;;;;;;;13.70;10.53;;;;;;;;;;5030881;28;20523;-69
2021/08/10 00:58:03;;;;;;;13.03;9.60;;;;;;;;;;5029168;28;20440;-73
2021/08/10 01:00:29;;;;;;;14.17;10.00;;;;;;;;;;5030959;28;20921;-70
2021/08/10 01:02:55;;;;;;;12.43;9.57;;;;;;;;;;5030648;28;20451;-69
2021/08/10 01:05:21;;;;;;;11.20;9.83;;;;;;;;;;5030690;28;20505;-72
2021/08/10 01:07:52;;;;;;;11.47;9.20;;;;;;;;;;5030504;28;20429;-72
2021/08/10 01:10:20;;;;;;;12.70;9.33;;;;;;;;;;5030775;28;20475;-72
2021/08/10 01:13:04;;;;;;;9.33;7.83;;;;;;;;;;5030632;28;20446;-71
2021/08/10 01:15:39;;;;;;;9.80;8.50;;;;;;;;;;5030602;28;20499;-71
2021/08/10 01:18:22;;;;;;;10.77;8.47;;;;;;;;;;5030206;28;20443;-71
2021/08/10 01:21:07;;;;;;;11.57;8.30;;;;;;;;;;5029028;28;20507;-71
2021/08/10 01:23:34;;;;;;;10.77;7.97;;;;;;;;;;5028917;28;20491;-72
2021/08/10 01:26:08;;;;;;;10.53;8.40;;;;;;;;;;5030424;28;20432;-72
2021/08/10 01:28:46;;;;;;;13.70;9.27;;;;;;;;;;5028613;28;21034;-71
2021/08/10 01:31:25;;;;;;;9.33;8.27;;;;;;;;;;5030944;28;20919;-69
2021/08/10 01:33:55;;;;;;;13.30;8.73;;;;;;;;;;5030086;28;20478;-70
2021/08/10 01:36:21;;;;;;;10.27;8.70;;;;;;;;;;5030287;28;20400;-71
2021/08/10 01:38:49;;;;;;;13.30;8.87;;;;;;;;;;5029825;28;20464;-72
2021/08/10 01:41:15;;;;;;;11.53;8.20;;;;;;;;;;5030490;28;20410;-70
2021/08/10 01:43:42;;;;;;;7.80;6.83;;;;;;;;;;5030255;28;20436;-71
2021/08/10 01:46:08;;;;;;;8.50;7.13;;;;;;;;;;5030172;28;20409;-71
2021/08/10 01:48:35;;;;;;;8.83;7.60;;;;;;;;;;5029857;28;20837;-71
2021/08/10 01:51:02;;;;;;;9.10;7.10;;;;;;;;;;5029661;28;20463;-73
2021/08/10 01:53:28;;;;;;;10.70;7.47;;;;;;;;;;5029866;28;20522;-72
2021/08/10 01:55:57;;;;;;;7.97;6.97;;;;;;;;;;5030004;28;20420;-70
2021/08/10 01:58:23;;;;;;;8.07;6.97;;;;;;;;;;5020926;28;20424;-71
2021/08/10 02:00:50;;;;;;;10.20;7.13;;;;;;;;;;5029835;28;20518;-71
2021/08/10 02:03:17;;;;;;;8.00;7.00;;;;;;;;;;5027540;28;20484;-70
2021/08/10 02:05:43;;;;;;;8.90;6.70;;;;;;;;;;5029593;28;20428;-69
2021/08/10 02:08:10;;;;;;;10.43;6.90;;;;;;;;;;5029287;28;20426;-70
2021/08/10 02:10:36;;;;;;;9.50;8.33;;;;;;;;;;5029657;28;20463;-72
2021/08/10 02:13:02;;;;;;;10.33;7.10;;;;;;;;;;5029738;28;20417;-73
2021/08/10 02:15:29;;;;;;;10.60;8.20;;;;;;;;;;5029691;28;20452;-71
2021/08/10 02:17:55;;;;;;;9.90;7.93;;;;;;;;;;5029268;28;20416;-71
2021/08/10 02:20:21;;;;;;;9.47;7.30;;;;;;;;;;5028005;28;20456;-71
2021/08/10 02:22:48;;;;;;;9.87;7.97;;;;;;;;;;5029656;28;20420;-72
2021/08/10 02:25:18;;;;;;;9.63;8.00;;;;;;;;;;5029287;28;20471;-72
2021/08/10 02:27:48;;;;;;;12.47;8.67;;;;;;;;;;5029344;28;20416;-72
2021/08/10 02:30:16;;;;;;;9.57;8.17;;;;;;;;;;5029241;28;20460;-72
2021/08/10 02:32:44;;;;;;;8.90;7.70;;;;;;;;;;5030123;28;20436;-72
2021/08/10 02:35:10;;;;;;;9.33;7.40;;;;;;;;;;5027886;28;20502;-71
2021/08/10 02:37:37;;;;;;;10.67;7.10;;;;;;;;;;5028977;28;20466;-71
2021/08/10 02:40:06;;;;;;;14.37;7.70;;;;;;;;;;5032137;28;20408;-71
2021/08/10 02:42:33;;;;;;;8.33;7.37;;;;;;;;;;5032968;28;20429;-71
2021/08/10 02:45:00;;;;;;;12.60;8.10;;;;;;;;;;5032786;28;20440;-72
2021/08/10 02:47:28;;;;;;;9.57;7.40;;;;;;;;;;5032555;28;20432;-70
2021/08/10 02:49:54;;;;;;;8.80;6.70;;;;;;;;;;5032782;28;20461;-73
2021/08/10 02:52:20;;;;;;;7.90;6.47;;;;;;;;;;5032779;28;20455;-74
2021/08/10 02:54:47;;;;;;;9.27;6.80;;;;;;;;;;5032742;28;20516;-70
2021/08/10 02:57:13;;;;;;;7.43;6.30;;;;;;;;;;5032981;28;20463;-69
2021/08/10 02:59:42;;;;;;;7.40;6.70;;;;;;;;;;5032557;28;20905;-70
2021/08/10 03:02:12;;;;;;;10.60;7.10;;;;;;;;;;5032548;28;20472;-72
2021/08/10 03:04:41;;;;;;;8.60;7.50;;;;;;;;;;5032692;28;20495;-74
2021/08/10 03:07:07;;;;;;;10.17;7.90;;;;;;;;;;5032433;28;20431;-73
2021/08/10 03:09:34;;;;;;;9.60;8.60;;;;;;;;;;5032739;28;20515;-70
2021/08/10 03:12:01;;;;;;;10.03;7.73;;;;;;;;;;5033021;28;20416;-71
2021/08/10 03:14:27;;;;;;;11.93;8.83;;;;;;;;;;5034887;28;20432;-71
2021/08/10 03:16:55;;;;;;;10.60;7.87;;;;;;;;;;5036445;28;20421;-70
2021/08/10 03:19:21;;;;;;;10.33;8.13;;;;;;;;;;5036334;28;20889;-73
2021/08/10 03:21:47;;;;;;;10.27;7.83;;;;;;;;;;5036754;28;20425;-73
2021/08/10 03:24:15;;;;;;;10.60;7.60;;;;;;;;;;5036289;28;20479;-71
2021/08/10 03:26:41;;;;;;;13.00;8.63;;;;;;;;;;5036025;28;20764;-72
2021/08/10 03:29:07;;;;;;;8.47;6.90;;;;;;;;;;5036104;28;20794;-72
2021/08/10 03:31:36;;;;;;;8.23;7.27;;;;;;;;;;5037043;28;20473;-72
2021/08/10 03:34:02;;;;;;;10.37;8.37;;;;;;;;;;5036363;28;20433;-71
2021/08/10 03:36:29;;;;;;;8.87;7.23;;;;;;;;;;5036076;28;20417;-72
2021/08/10 03:38:55;;;;;;;8.83;7.70;;;;;;;;;;5035734;28;20405;-72
2021/08/10 03:41:23;;;;;;;8.57;7.37;;;;;;;;;;5036191;28;20431;-72
2021/08/10 03:43:49;;;;;;;9.77;7.63;;;;;;;;;;5036186;28;20460;-70
2021/08/10 03:46:15;;;;;;;9.23;7.30;;;;;;;;;;5036066;28;20496;-70
2021/08/10 03:48:43;;;;;;;11.17;8.13;;;;;;;;;;5035597;28;20417;-70
2021/08/10 03:51:10;;;;;;;8.63;7.77;;;;;;;;;;5035886;28;20497;-71
2021/08/10 03:53:36;;;;;;;11.77;8.47;;;;;;;;;;5035999;28;20939;-70
2021/08/10 03:56:03;;;;;;;8.67;7.80;;;;;;;;;;5035665;28;20401;-71
2021/08/10 03:58:32;;;;;;;7.77;6.97;;;;;;;;;;5035447;28;20413;-72
2021/08/10 04:01:00;;;;;;;9.73;6.97;;;;;;;;;;5035872;28;20449;-72
2021/08/10 04:03:30;;;;;;;8.87;8.07;;;;;;;;;;5035816;28;20892;-70
2021/08/10 04:05:58;;;;;;;11.57;9.00;;;;;;;;;;5035634;28;20524;-72
2021/08/10 04:08:24;;;;;;;9.13;8.20;;;;;;;;;;5034281;28;20424;-71
2021/08/10 04:10:50;;;;;;;8.93;7.90;;;;;;;;;;5035068;28;20556;-72
2021/08/10 04:13:16;;;;;;;10.27;7.47;;;;;;;;;;5035565;28;20801;-73
2021/08/10 04:15:46;;;;;;;8.40;7.10;;;;;;;;;;5035651;28;20436;-73
2021/08/10 04:18:16;;;;;;;8.93;7.00;;;;;;;;;;5035540;28;20404;-73
2021/08/10 04:20:46;;;;;;;9.30;7.20;;;;;;;;;;5035262;28;20546;-70
2021/08/10 04:23:12;;;;;;;9.97;7.87;;;;;;;;;;5035218;28;20421;-71
2021/08/10 04:25:38;;;;;;;7.97;7.20;;;;;;;;;;5034295;28;20435;-73
2021/08/10 04:28:04;;;;;;;8.73;7.30;;;;;;;;;;5035000;28;20870;-73
2021/08/10 04:30:30;;;;;;;8.30;7.40;;;;;;;;;;5035093;28;20503;-71
2021/08/10 04:32:56;;;;;;;7.97;6.97;;;;;;;;;;5035207;28;21013;-73
2021/08/10 04:35:23;;;;;;;8.77;6.67;;;;;;;;;;5034895;28;20441;-70
2021/08/10 04:37:49;;;;;;;7.60;6.87;;;;;;;;;;5034765;28;20432;-70
2021/08/10 04:40:15;;;;;;;6.80;6.10;;;;;;;;;;5034904;28;20414;-73
2021/08/10 04:42:41;;;;;;;7.70;7.00;;;;;;;;;;5035038;28;20435;-71
2021/08/10 04:45:07;;;;;;;9.10;8.10;;;;;;;;;;5034592;28;20437;-71
2021/08/10 04:47:33;;;;;;;7.67;6.43;;;;;;;;;;5034555;28;20509;-71
2021/08/10 04:49:59;;;;;;;8.43;7.50;;;;;;;;;;5034616;28;20548;-70
2021/08/10 04:52:25;;;;;;;7.50;6.80;;;;;;;;;;5034787;28;20770;-71
2021/08/10 04:54:52;;;;;;;8.63;7.27;;;;;;;;;;5034648;28;20823;-71
2021/08/10 04:57:18;;;;;;;7.07;6.37;;;;;;;;;;5034263;28;20410;-71
2021/08/10 04:59:44;;;;;;;7.63;6.90;;;;;;;;;;5034626;28;20842;-72
2021/08/10 05:02:10;;;;;;;9.03;7.37;;;;;;;;;;5034920;28;20437;-73
2021/08/10 05:04:36;;;;;;;10.07;8.90;;;;;;;;;;5040545;28;20524;-72
2021/08/10 05:07:02;;;;;;;11.20;7.50;;;;;;;;;;5033942;28;20473;-70
2021/08/10 05:09:28;;;;;;;10.47;7.60;;;;;;;;;;5034377;28;20496;-72
2021/08/10 05:11:56;;;;;;;9.27;7.70;;;;;;;;;;5034364;28;20414;-72
2021/08/10 05:14:23;;;;;;;9.00;7.83;;;;;;;;;;5034521;28;20433;-72
2021/08/10 05:16:49;;;;;;;9.90;7.00;;;;;;;;;;5033912;28;20421;-72
2021/08/10 05:19:15;;;;;;;7.80;6.40;;;;;;;;;;5034322;28;20798;-72
2021/08/10 05:21:41;;;;;;;9.23;6.03;;;;;;;;;;5034293;28;20422;-72
2021/08/10 05:24:07;;;;;;;7.37;6.13;;;;;;;;;;5034216;28;20486;-72
2021/08/10 05:26:33;;;;;;;8.30;6.10;;;;;;;;;;5033952;28;20473;-72
2021/08/10 05:28:59;;;;;;;7.67;5.77;;;;;;;;;;5033039;28;20825;-72
2021/08/10 05:31:25;;;;;;;8.63;6.23;;;;;;;;;;5034386;28;20754;-73
2021/08/10 05:33:51;;;;;;;7.80;5.80;;;;;;;;;;5034070;28;20440;-72
2021/08/10 05:36:19;;;;;;;6.87;5.90;;;;;;;;;;5033675;28;20422;-72
2021/08/10 05:38:49;;;;;;;8.37;6.87;;;;;;;;;;5033572;28;20500;-71
2021/08/10 05:41:15;;;;;;;9.50;6.30;;;;;;;;;;5033892;28;20450;-69
2021/08/10 05:43:41;;;;;;;10.30;6.67;;;;;;;;;;5033952;28;20489;-72
2021/08/10 05:46:07;;;;;;;7.20;6.50;;;;;;;;;;5033760;28;20414;-69
2021/08/10 05:48:33;;;;;;;7.93;6.60;;;;;;;;;;5032318;28;20422;-73
2021/08/10 05:51:00;;;;;;;8.17;6.90;;;;;;;;;;5033487;28;20466;-73
2021/08/10 05:53:26;;;;;;;6.83;6.00;;;;;;;;;;5033656;28;20431;-72
2021/08/10 05:55:52;;;;;;;7.93;6.73;;;;;;;;;;5033657;28;20477;-73
2021/08/10 05:58:18;;;;;;;7.27;6.00;;;;;;;;;;5033428;28;20415;-69
2021/08/10 06:00:44;;;;;;;8.20;5.40;;;;;;;;;;5033506;28;20426;-72
2021/08/10 06:03:10;;;;;;;6.40;5.80;;;;;;;;;;5033280;28;20420;-72
2021/08/10 06:05:36;;;;;;;7.97;6.83;;;;;;;;;;5033111;28;20439;-71
2021/08/10 06:08:02;;;;;;;7.40;6.33;;;;;;;;;;5032989;28;20446;-71
2021/08/10 06:10:28;;;;;;;6.90;5.10;;;;;;;;;;5033472;28;20458;-71
2021/08/10 06:12:54;;;;;;;7.17;5.60;;;;;;;;;;5033625;28;20411;-73
2021/08/10 06:15:20;;;;;;;5.80;5.30;;;;;;;;;;5031951;28;20446;-71
2021/08/10 06:17:46;;;;;;;6.03;5.43;;;;;;;;;;5032873;28;21010;-70
2021/08/10 06:20:13;;;;;;;12.50;7.40;;;;;;;;;;5033696;28;20466;-73
2021/08/10 06:22:39;;;;;;;9.93;6.97;;;;;;;;;;5033086;28;20420;-73
2021/08/10 06:25:05;;;;;;;7.87;5.83;;;;;;;;;;5033187;28;20489;-73
2021/08/10 06:27:31;;;;;;;6.37;5.70;;;;;;;;;;5033176;28;20412;-70
2021/08/10 06:29:57;;;;;;;6.77;5.70;;;;;;;;;;5033203;28;20467;-71
2021/08/10 06:32:23;;;;;;;7.30;5.33;;;;;;;;;;5033828;28;20416;-73
2021/08/10 06:34:49;;;;;;;6.53;5.80;;;;;;;;;;5032985;28;20901;-72
2021/08/10 06:37:15;;;;;;;7.30;6.00;;;;;;;;;;5032616;28;20418;-71
2021/08/10 06:39:41;;;;;;;6.47;5.73;;;;;;;;;;5032930;28;20416;-71
2021/08/10 06:42:07;;;;;;;6.23;5.47;;;;;;;;;;5032980;28;20435;-73
2021/08/10 06:44:34;;;;;;;7.23;6.03;;;;;;;;;;5032844;28;20431;-73
2021/08/10 06:47:00;;;;;;;7.90;5.00;;;;;;;;;;5032449;28;20416;-70
2021/08/10 06:49:27;;;;;;;6.40;5.20;;;;;;;;;;5035280;28;20507;-71
2021/08/10 06:51:53;;;;;;;9.20;5.47;;;;;;;;;;5037176;28;20469;-72
2021/08/10 06:54:20;;;;;;;5.97;5.37;;;;;;;;;;5036753;28;20511;-73
2021/08/10 06:56:46;;;;;;;5.70;5.10;;;;;;;;;;5036529;28;20416;-71
2021/08/10 06:59:12;;;;;;;5.70;5.00;;;;;;;;;;5036914;28;20416;-72
2021/08/10 07:01:38;;;;;;;6.40;5.50;;;;;;;;;;5036792;28;20419;-71
2021/08/10 07:04:04;;;;;;;7.03;5.50;;;;;;;;;;5036828;28;20450;-69
2021/08/10 07:06:31;;;;;;;7.90;5.93;;;;;;;;;;5036565;28;20436;-70
2021/08/10 07:08:59;;;;;;;8.87;6.73;;;;;;;;;;5036575;28;20419;-70
2021/08/10 07:11:26;;;;;;;8.10;5.07;;;;;;;;;;5036803;28;20424;-72
2021/08/10 07:13:52;;;;;;;5.80;5.17;;;;;;;;;;5036469;28;20432;-71
2021/08/10 07:16:18;;;;;;;7.10;6.20;;;;;;;;;;5036500;28;20811;-71
2021/08/10 07:18:44;;;;;;;11.87;8.30;;;;;;;;;;5036097;28;20503;-72
2021/08/10 07:21:10;;;;;;;8.80;6.00;;;;;;;;;;5035537;28;20424;-71
2021/08/10 07:23:36;;;;;;;6.13;5.20;;;;;;;;;;5036366;28;20478;-71
2021/08/10 07:26:02;;;;;;;6.10;5.50;;;;;;;;;;5036898;28;20462;-70
2021/08/10 07:28:28;;;;;;;6.73;5.10;;;;;;;;;;5035755;28;20416;-71
2021/08/10 07:30:54;;;;;;;5.70;5.10;;;;;;;;;;5036576;28;20452;-72
2021/08/10 07:33:20;;;;;;;7.77;5.53;;;;;;;;;;5036891;28;20951;-69
2021/08/10 07:35:46;;;;;;;7.67;6.07;;;;;;;;;;5036558;28;20400;-71
2021/08/10 07:38:12;;;;;;;6.20;5.60;;;;;;;;;;5035879;28;20435;-70
2021/08/10 07:40:38;;;;;;;6.30;5.53;;;;;;;;;;5036259;28;20931;-71
2021/08/10 07:43:04;;;;;;;8.80;7.00;;;;;;;;;;5035906;28;20419;-73
2021/08/10 07:45:30;;;;;;;6.20;5.60;;;;;;;;;;5036215;28;20408;-70
2021/08/10 07:47:56;;;;;;;6.57;5.60;;;;;;;;;;5035725;28;20800;-71
2021/08/10 07:50:22;;;;;;;6.83;5.30;;;;;;;;;;5035918;28;20468;-71
2021/08/10 07:52:48;;;;;;;7.40;5.77;;;;;;;;;;5034395;28;20908;-69
2021/08/10 07:55:15;;;;;;;6.10;5.10;;;;;;;;;;5035764;28;20953;-71
2021/08/10 07:57:42;;;;;;;9.50;5.57;;;;;;;;;;5035159;28;20409;-73
2021/08/10 08:00:10;;;;;;;5.33;4.83;;;;;;;;;;5035887;28;20495;-72
2021/08/10 08:02:36;;;;;;;5.90;5.30;;;;;;;;;;5035435;28;20408;-71
2021/08/10 08:05:02;;;;;;;5.53;5.00;;;;;;;;;;5035774;28;20459;-70
2021/08/10 08:07:29;;;;;;;6.10;5.50;;;;;;;;;;5035085;28;20436;-70
2021/08/10 08:09:55;;;;;;;10.20;5.97;;;;;;;;;;5035764;28;20816;-71
2021/08/10 08:12:21;;;;;;;7.17;5.30;;;;;;;;;;5035294;28;20412;-72
2021/08/10 08:14:47;;;;;;;7.67;5.70;;;;;;;;;;5035400;28;20443;-71
2021/08/10 08:17:13;;;;;;;6.47;5.83;;;;;;;;;;5035319;28;21223;-72
2021/08/10 08:19:39;;;;;;;6.23;5.60;;;;;;;;;;5035689;28;20417;-71
2021/08/10 08:22:06;;;;;;;6.63;5.93;;;;;;;;;;5035516;28;20413;-70
2021/08/10 08:24:32;;;;;;;9.37;6.27;;;;;;;;;;5035275;28;20813;-71
2021/08/10 08:26:58;;;;;;;6.13;5.50;;;;;;;;;;5035278;28;20419;-72
2021/08/10 08:29:24;;;;;;;10.03;5.83;;;;;;;;;;5035252;28;20459;-69
2021/08/10 08:31:50;;;;;;;6.03;5.53;;;;;;;;;;5035801;28;20412;-70
2021/08/10 08:34:16;;;;;;;6.07;5.47;;;;;;;;;;5035115;28;20451;-69
2021/08/10 08:36:43;;;;;;;8.43;5.90;;;;;;;;;;5034913;28;20412;-73
2021/08/10 08:39:09;;;;;;;4.80;4.40;;;;;;;;;;5035230;28;20466;-71
2021/08/10 08:41:35;;;;;;;7.20;5.87;;;;;;;;;;5030557;28;20524;-72
2021/08/10 08:44:01;;;;;;;6.23;5.30;;;;;;;;;;5035057;28;20478;-71
2021/08/10 08:46:27;;;;;;;7.37;4.90;;;;;;;;;;5035191;28;20411;-71
2021/08/10 08:48:55;;;;;;;5.07;4.33;;;;;;;;;;5034483;28;20409;-70
2021/08/10 08:51:24;;;;;;;8.40;4.80;;;;;;;;;;5034734;28;20499;-71
2021/08/10 08:53:52;;;;;;;6.83;4.73;;;;;;;;;;5034815;28;20525;-72
2021/08/10 08:56:19;;;;;;;5.80;4.50;;;;;;;;;;5034735;28;20413;-72
2021/08/10 08:58:45;;;;;;;4.80;4.30;;;;;;;;;;5034197;28;20430;-70
2021/08/10 09:01:14;;;;;;;6.83;4.43;;;;;;;;;;5034815;28;20431;-69
2021/08/10 09:03:40;;;;;;;4.90;4.40;;;;;;;;;;5034644;28;20432;-73
2021/08/10 09:06:06;;;;;;;4.93;4.43;;;;;;;;;;5029702;28;20447;-71
2021/08/10 09:08:39;;;;;;;5.87;4.90;;;;;;;;;;5025854;28;20424;-73
2021/08/10 09:11:07;;;;;;;4.50;4.10;;;;;;;;;;5029404;28;20470;-72
2021/08/10 09:13:34;;;;;;;5.97;4.57;;;;;;;;;;5029554;28;20445;-72
2021/08/10 09:16:05;;;;;;;4.70;4.13;;;;;;;;;;5030704;28;20421;-71
2021/08/10 09:18:31;;;;;;;5.37;4.60;;;;;;;;;;5028874;28;20428;-72
2021/08/10 09:20:59;;;;;;;6.73;4.60;;;;;;;;;;5030566;28;20416;-72
2021/08/10 09:23:37;;;;;;;4.43;4.03;;;;;;;;;;5030221;28;20771;-71
2021/08/10 09:26:03;;;;;;;4.33;3.93;;;;;;;;;;5029661;28;20425;-73
2021/08/10 09:28:35;;;;;;;7.13;3.50;;;;;;;;;;5029929;28;20467;-72
2021/08/10 09:31:20;;;;;;;5.80;4.20;;;;;;;;;;5030011;28;20530;-73
2021/08/10 09:33:46;;;;;;;5.80;4.10;;;;;;;;;;5030029;28;20440;-71
2021/08/10 09:36:22;;;;;;;4.17;3.77;;;;;;;;;;5030294;28;20411;-71
2021/08/10 09:38:50;;;;;;;6.33;4.77;;;;;;;;;;5029650;28;20436;-72
2021/08/10 09:41:16;;;;;;;5.87;4.40;;;;;;;;;;5030030;28;20470;-70
2021/08/10 09:43:42;;;;;;;7.07;4.53;;;;;;;;;;5030261;28;20429;-71
2021/08/10 09:46:11;;;;;;;4.73;4.30;;;;;;;;;;5029498;28;20913;-72
2021/08/10 09:48:38;;;;;;;7.13;4.17;;;;;;;;;;5029776;28;20470;-70
2021/08/10 09:51:12;;;;;;;5.70;5.30;;;;;;;;;;5029685;28;20468;-72
2021/08/10 09:53:38;;;;;;;4.83;4.33;;;;;;;;;;5029926;28;20447;-72
2021/08/10 09:56:04;;;;;;;5.53;5.00;;;;;;;;;;5029877;28;20786;-70
2021/08/10 09:58:30;;;;;;;7.63;4.70;;;;;;;;;;5028388;28;20431;-71
2021/08/10 10:01:01;;;;;;;6.90;4.70;;;;;;;;;;5029693;28;20523;-71
2021/08/10 10:03:28;;;;;;;5.83;5.23;;;;;;;;;;5029854;28;20458;-72
2021/08/10 10:05:54;;;;;;;6.60;5.57;;;;;;;;;;5029802;28;20532;-71
2021/08/10 10:08:21;;;;;;;8.27;6.00;;;;;;;;;;5029594;28;20410;-70
2021/08/10 10:10:48;;;;;;;6.87;5.80;;;;;;;;;;5029823;28;20467;-71
2021/08/10 10:13:16;;;;;;;7.97;6.53;;;;;;;;;;5029453;28;20428;-69
2021/08/10 10:15:42;;;;;;;6.67;5.93;;;;;;;;;;5029854;28;20408;-71
2021/08/10 10:18:09;;;;;;;6.07;5.57;;;;;;;;;;5029643;28;20470;-72
2021/08/10 10:20:36;;;;;;;6.43;5.83;;;;;;;;;;5029758;28;20416;-71
2021/08/10 10:23:03;;;;;;;7.13;5.80;;;;;;;;;;5027455;28;20425;-71
2021/08/10 10:25:30;;;;;;;5.20;4.67;;;;;;;;;;5028234;28;20471;-70
2021/08/10 10:27:56;;;;;;;6.10;5.60;;;;;;;;;;5029190;28;20535;-72
2021/08/10 10:30:22;;;;;;;6.00;5.50;;;;;;;;;;5029407;28;20464;-71
2021/08/10 10:32:48;;;;;;;7.10;6.40;;;;;;;;;;5030196;28;20416;-70
2021/08/10 10:35:17;;;;;;;6.10;5.50;;;;;;;;;;5029167;28;20436;-71
2021/08/10 10:37:49;;;;;;;6.40;5.80;;;;;;;;;;5029111;28;20715;-71
2021/08/10 10:40:17;;;;;;;6.13;5.63;;;;;;;;;;5029350;28;20820;-71
2021/08/10 10:42:45;;;;;;;7.00;6.40;;;;;;;;;;5029417;28;20452;-71
2021/08/10 10:45:30;;;;;;;6.70;6.20;;;;;;;;;;5028835;28;20945;-70
2021/08/10 10:47:56;;;;;;;6.43;5.83;;;;;;;;;;5028889;28;20412;-71
2021/08/10 10:50:22;;;;;;;6.00;5.50;;;;;;;;;;5029175;28;20539;-73
2021/08/10 10:53:04;;;;;;;6.03;5.53;;;;;;;;;;5028999;28;20408;-71
2021/08/10 10:55:41;;;;;;;5.60;5.10;;;;;;;;;;5028972;28;20474;-72
2021/08/10 10:58:25;;;;;;;5.80;5.30;;;;;;;;;;5026324;28;20412;-73
2021/08/10 11:01:24;;;;;;;5.33;4.73;;;;;;;;;;5028899;28;20499;-71
2021/08/10 11:04:07;;;;;;;7.13;4.87;;;;;;;;;;5016654;28;20445;-71
2021/08/10 11:06:48;;;;;;;5.70;5.20;;;;;;;;;;5028828;28;20443;-72
2021/08/10 11:09:33;;;;;;;5.60;5.17;;;;;;;;;;5024765;28;20447;-71
2021/08/10 11:11:59;;;;;;;5.90;5.13;;;;;;;;;;5029031;28;20769;-72
2021/08/10 11:14:37;;;;;;;6.60;5.93;;;;;;;;;;5028879;28;20460;-73
2021/08/10 11:17:12;;;;;;;6.27;5.67;;;;;;;;;;5028521;28;20423;-73
2021/08/10 11:19:40;;;;;;;8.70;6.03;;;;;;;;;;5028770;28;20469;-71
2021/08/10 11:22:15;;;;;;;6.40;5.90;;;;;;;;;;5028887;28;20428;-73
2021/08/10 11:24:45;;;;;;;7.33;6.60;;;;;;;;;;5029029;28;20535;-73
2021/08/10 11:27:30;;;;;;;7.07;6.37;;;;;;;;;;5028231;28;20423;-73
2021/08/10 11:29:57;;;;;;;7.07;6.47;;;;;;;;;;5028703;28;20460;-72
2021/08/10 11:32:46;;;;;;;7.20;6.60;;;;;;;;;;5029412;28;20455;-71
2021/08/10 11:35:49;;;;;;;8.60;7.80;;;;;;;;;;5027208;28;20486;-77
2021/08/10 11:38:21;;;;;;;9.30;8.00;;;;;;;;;;5009737;28;20797;-70
2021/08/10 11:41:02;;;;;;;8.07;7.27;;;;;;;;;;5029079;28;20544;-70
2021/08/10 11:43:34;;;;;;;9.70;8.57;;;;;;;;;;5031780;28;20440;-70
2021/08/10 11:46:00;;;;;;;9.37;8.50;;;;;;;;;;5032613;28;20424;-71
2021/08/10 11:48:26;;;;;;;9.47;8.57;;;;;;;;;;5032271;28;20469;-69
2021/08/10 11:50:52;;;;;;;9.07;8.00;;;;;;;;;;5032214;28;20552;-72
2021/08/10 11:53:31;;;;;;;10.23;8.90;;;;;;;;;;5031607;28;20817;-71
2021/08/10 11:55:58;;;;;;;11.20;9.57;;;;;;;;;;5032051;28;20500;-72
2021/08/10 11:58:42;;;;;;;8.10;7.33;;;;;;;;;;5022160;28;20921;-72
2021/08/10 12:01:08;;;;;;;7.23;6.63;;;;;;;;;;5027486;28;21200;-72
2021/08/10 12:03:34;;;;;;;8.10;6.23;;;;;;;;;;5032226;28;20543;-70
2021/08/10 12:06:00;;;;;;;6.63;6.03;;;;;;;;;;5031937;28;20443;-71
2021/08/10 12:08:26;;;;;;;7.63;7.03;;;;;;;;;;5031760;28;20498;-72
2021/08/10 12:10:52;;;;;;;5.70;5.20;;;;;;;;;;5031783;28;20468;-71
2021/08/10 12:13:22;;;;;;;5.63;5.13;;;;;;;;;;5031791;28;20498;-73
2021/08/10 12:15:49;;;;;;;6.47;5.20;;;;;;;;;;5031822;28;20448;-72
2021/08/10 12:18:16;;;;;;;6.03;5.60;;;;;;;;;;5031183;28;20413;-72
2021/08/10 12:20:42;;;;;;;5.87;5.40;;;;;;;;;;5031873;28;20430;-69
2021/08/10 12:23:10;;;;;;;5.70;5.30;;;;;;;;;;5031646;28;20419;-71
2021/08/10 12:25:37;;;;;;;5.37;4.87;;;;;;;;;;5031603;28;20440;-72
2021/08/10 12:28:07;;;;;;;5.13;4.70;;;;;;;;;;5031341;28;20919;-71
2021/08/10 12:30:33;;;;;;;5.90;5.33;;;;;;;;;;5031446;28;20527;-72
2021/08/10 12:33:18;;;;;;;5.93;5.43;;;;;;;;;;5032024;28;21910;-72
2021/08/10 12:36:04;;;;;;;6.10;5.53;;;;;;;;;;5023517;28;20434;-73
2021/08/10 12:38:31;;;;;;;6.27;5.67;;;;;;;;;;5027630;28;20438;-71
2021/08/10 12:40:57;;;;;;;5.50;5.10;;;;;;;;;;5031234;28;20503;-71
2021/08/10 12:43:24;;;;;;;6.07;5.57;;;;;;;;;;5031050;28;21261;-72
2021/08/10 12:45:50;;;;;;;7.40;5.30;;;;;;;;;;5030422;28;20519;-69
2021/08/10 12:48:33;;;;;;;5.23;4.70;;;;;;;;;;5030586;28;20409;-70
2021/08/10 12:51:01;;;;;;;4.80;4.40;;;;;;;;;;5030977;28;20464;-71
2021/08/10 12:53:27;;;;;;;3.97;3.57;;;;;;;;;;5029570;28;20506;-73
2021/08/10 12:55:54;;;;;;;4.03;3.63;;;;;;;;;;5030843;28;20525;-70
2021/08/10 12:58:20;;;;;;;3.93;3.63;;;;;;;;;;5030646;28;20413;-72
2021/08/10 13:01:02;;;;;;;3.87;3.53;;;;;;;;;;5030847;28;20421;-70
2021/08/10 13:03:28;;;;;;;4.70;4.30;;;;;;;;;;5030675;28;20867;-72
2021/08/10 13:05:56;;;;;;;3.97;3.67;;;;;;;;;;5029309;28;20448;-71
2021/08/10 13:08:22;;;;;;;4.47;4.07;;;;;;;;;;5030360;28;21189;-70
2021/08/10 13:10:48;;;;;;;4.40;4.00;;;;;;;;;;5030745;28;20471;-70
2021/08/10 13:13:27;;;;;;;5.13;4.73;;;;;;;;;;5030790;28;20424;-70
2021/08/10 13:15:55;;;;;;;4.73;4.33;;;;;;;;;;5030889;28;20904;-72
2021/08/10 13:18:23;;;;;;;5.27;4.83;;;;;;;;;;5030312;28;20416;-71
2021/08/10 13:20:54;;;;;;;5.70;5.30;;;;;;;;;;5030753;28;20512;-70
2021/08/10 13:23:21;;;;;;;6.60;6.10;;;;;;;;;;5030505;28;20436;-70
2021/08/10 13:26:04;;;;;;;7.47;5.30;;;;;;;;;;5030633;28;20474;-72
2021/08/10 13:28:32;;;;;;;6.10;5.50;;;;;;;;;;5030090;28;20416;-71
2021/08/10 13:31:17;;;;;;;4.30;4.00;;;;;;;;;;5030423;28;20460;-69
2021/08/10 13:33:54;;;;;;;4.77;4.37;;;;;;;;;;5030347;28;20443;-72
2021/08/10 13:36:20;;;;;;;5.50;5.00;;;;;;;;;;5030558;28;20495;-70
2021/08/10 13:38:47;;;;;;;7.37;4.50;;;;;;;;;;5030150;28;20416;-70
2021/08/10 13:41:13;;;;;;;4.50;4.10;;;;;;;;;;5030216;28;20440;-71
2021/08/10 13:43:39;;;;;;;6.37;5.63;;;;;;;;;;5030048;28;20436;-72
2021/08/10 13:46:05;;;;;;;4.87;4.47;;;;;;;;;;5030219;28;20470;-72
2021/08/10 13:48:32;;;;;;;5.30;4.20;;;;;;;;;;5028885;28;20424;-72
2021/08/10 13:50:58;;;;;;;4.33;4.03;;;;;;;;;;5029892;28;20546;-71
2021/08/10 13:53:26;;;;;;;5.30;4.80;;;;;;;;;;5029934;28;20571;-72
2021/08/10 13:55:52;;;;;;;7.00;5.37;;;;;;;;;;5030947;28;20511;-70
2021/08/10 13:58:18;;;;;;;5.60;4.90;;;;;;;;;;5029434;28;20449;-72
2021/08/10 14:00:44;;;;;;;5.17;4.77;;;;;;;;;;5029882;28;20453;-70
2021/08/10 14:03:11;;;;;;;3.53;3.20;;;;;;;;;;5028425;28;20550;-71
2021/08/10 14:05:37;;;;;;;2.30;2.10;;;;;;;;;;5029627;28;20830;-72
2021/08/10 14:08:03;;;;;;;4.00;3.47;;;;;;;;;;5020333;28;20826;-71
2021/08/10 14:10:29;;;;;;;4.47;2.50;;;;;;;;;;5026814;28;20488;-72
2021/08/10 14:12:56;;;;;;;4.50;4.10;;;;;;;;;;5029487;28;20789;-70
2021/08/10 14:15:22;;;;;;;3.23;2.93;;;;;;;;;;5029578;28;20434;-70
2021/08/10 14:17:50;;;;;;;3.23;2.57;;;;;;;;;;5027900;28;20436;-72
2021/08/10 14:20:16;;;;;;;4.80;4.37;;;;;;;;;;5029442;28;20423;-73
2021/08/10 14:22:42;;;;;;;10.77;9.17;;;;;;;;;;5029584;28;20790;-72
2021/08/10 14:25:09;;;;;;;4.90;3.80;;;;;;;;;;5028584;28;20456;-71
2021/08/10 14:27:35;;;;;;;3.23;2.80;;;;;;;;;;5028720;28;20423;-73
2021/08/10 14:30:02;;;;;;;5.27;4.77;;;;;;;;;;5027948;28;20474;-71
2021/08/10 14:32:28;;;;;;;3.20;2.90;;;;;;;;;;5029402;28;20416;-72
2021/08/10 14:34:54;;;;;;;3.40;3.10;;;;;;;;;;5029439;28;20801;-72
2021/08/10 14:37:21;;;;;;;4.80;3.20;;;;;;;;;;5029101;28;20424;-74
2021/08/10 14:39:48;;;;;;;7.63;2.97;;;;;;;;;;5030559;28;20430;-71
2021/08/10 14:42:14;;;;;;;4.77;3.67;;;;;;;;;;5029526;28;20420;-73
2021/08/10 14:44:40;;;;;;;6.00;5.40;;;;;;;;;;5027747;28;21016;-72
2021/08/10 14:47:06;;;;;;;8.30;7.53;;;;;;;;;;5029269;28;20463;-71